sensor_id;sensor_type;location;lat;lon;timestamp;P1;durP1;ratioP1;P2;durP2;ratioP2
21786;SDS011;11055;50.870;4.316;2023-05-27T00:02:06;13.68;;;4.15;;
21786;SDS011;11055;50.870;4.316;2023-05-27T00:04:32;13.30;;;4.45;;
21786;SDS011;11055;50.870;4.316;2023-05-27T00:06:57;16.48;;;4.68;;
21786;SDS011;11055;50.870;4.316;2023-05-27T00:09:23;14.15;;;4.32;;
21786;SDS011;11055;50.870;4.316;2023-05-27T00:11:49;14.20;;;4.47;;
21786;SDS011;11055;50.870;4.316;2023-05-27T00:14:14;15.27;;;4.22;;
21786;SDS011;11055;50.870;4.316;2023-05-27T00:16:42;21.58;;;5.53;;
21786;SDS011;11055;50.870;4.316;2023-05-27T00:19:08;16.92;;;4.55;;
21786;SDS011;11055;50.870;4.316;2023-05-27T00:21:33;17.98;;;4.65;;
21786;SDS011;11055;50.870;4.316;2023-05-27T00:23:59;13.82;;;4.53;;
21786;SDS011;11055;50.870;4.316;2023-05-27T00:26:25;16.15;;;4.30;;
21786;SDS011;11055;50.870;4.316;2023-05-27T00:28:51;14.88;;;4.18;;
21786;SDS011;11055;50.870;4.316;2023-05-27T00:31:17;18.65;;;5.55;;
21786;SDS011;11055;50.870;4.316;2023-05-27T00:33:43;14.70;;;4.03;;
21786;SDS011;11055;50.870;4.316;2023-05-27T00:36:09;20.67;;;5.07;;
21786;SDS011;11055;50.870;4.316;2023-05-27T00:38:35;18.27;;;4.20;;
21786;SDS011;11055;50.870;4.316;2023-05-27T00:41:01;17.27;;;4.65;;
21786;SDS011;11055;50.870;4.316;2023-05-27T00:43:28;10.85;;;3.92;;
21786;SDS011;11055;50.870;4.316;2023-05-27T00:45:57;15.00;;;4.57;;
21786;SDS011;11055;50.870;4.316;2023-05-27T00:48:23;18.40;;;4.55;;
21786;SDS011;11055;50.870;4.316;2023-05-27T00:50:49;19.60;;;4.90;;
21786;SDS011;11055;50.870;4.316;2023-05-27T00:53:15;16.27;;;4.85;;
21786;SDS011;11055;50.870;4.316;2023-05-27T00:55:42;21.27;;;4.72;;
21786;SDS011;11055;50.870;4.316;2023-05-27T00:58:08;20.42;;;5.10;;
21786;SDS011;11055;50.870;4.316;2023-05-27T01:00:34;21.67;;;5.10;;
21786;SDS011;11055;50.870;4.316;2023-05-27T01:03:03;18.38;;;4.78;;
21786;SDS011;11055;50.870;4.316;2023-05-27T01:05:32;15.32;;;4.43;;
21786;SDS011;11055;50.870;4.316;2023-05-27T01:10:53;14.10;;;4.43;;
21786;SDS011;11055;50.870;4.316;2023-05-27T01:16:01;21.27;;;5.47;;
21786;SDS011;11055;50.870;4.316;2023-05-27T01:18:28;17.58;;;5.03;;
21786;SDS011;11055;50.870;4.316;2023-05-27T01:20:57;19.10;;;4.25;;
21786;SDS011;11055;50.870;4.316;2023-05-27T01:23:28;15.80;;;4.95;;
21786;SDS011;11055;50.870;4.316;2023-05-27T01:25:54;13.55;;;4.47;;
21786;SDS011;11055;50.870;4.316;2023-05-27T01:28:19;16.58;;;4.20;;
21786;SDS011;11055;50.870;4.316;2023-05-27T01:30:45;13.88;;;4.47;;
21786;SDS011;11055;50.870;4.316;2023-05-27T01:33:17;17.83;;;5.05;;
21786;SDS011;11055;50.870;4.316;2023-05-27T01:38:34;16.85;;;4.60;;
21786;SDS011;11055;50.870;4.316;2023-05-27T01:41:04;20.90;;;5.65;;
21786;SDS011;11055;50.870;4.316;2023-05-27T01:43:30;18.20;;;4.97;;
21786;SDS011;11055;50.870;4.316;2023-05-27T01:45:56;17.55;;;4.80;;
21786;SDS011;11055;50.870;4.316;2023-05-27T01:48:24;16.10;;;5.00;;
21786;SDS011;11055;50.870;4.316;2023-05-27T01:50:49;16.63;;;4.95;;
21786;SDS011;11055;50.870;4.316;2023-05-27T01:53:15;18.08;;;5.28;;
21786;SDS011;11055;50.870;4.316;2023-05-27T01:55:41;14.30;;;4.60;;
21786;SDS011;11055;50.870;4.316;2023-05-27T01:58:06;16.48;;;4.75;;
21786;SDS011;11055;50.870;4.316;2023-05-27T02:00:32;14.98;;;4.57;;
21786;SDS011;11055;50.870;4.316;2023-05-27T02:02:58;20.58;;;4.47;;
21786;SDS011;11055;50.870;4.316;2023-05-27T02:05:23;17.42;;;5.53;;
21786;SDS011;11055;50.870;4.316;2023-05-27T02:07:49;15.80;;;4.15;;
21786;SDS011;11055;50.870;4.316;2023-05-27T02:10:15;15.43;;;4.65;;
21786;SDS011;11055;50.870;4.316;2023-05-27T02:12:41;15.90;;;4.75;;
21786;SDS011;11055;50.870;4.316;2023-05-27T02:15:06;17.88;;;4.78;;
21786;SDS011;11055;50.870;4.316;2023-05-27T02:17:33;15.10;;;5.10;;
21786;SDS011;11055;50.870;4.316;2023-05-27T02:19:58;15.60;;;4.82;;
21786;SDS011;11055;50.870;4.316;2023-05-27T02:22:24;16.50;;;5.10;;
21786;SDS011;11055;50.870;4.316;2023-05-27T02:24:50;16.88;;;4.28;;
21786;SDS011;11055;50.870;4.316;2023-05-27T02:27:15;18.17;;;4.70;;
21786;SDS011;11055;50.870;4.316;2023-05-27T02:29:41;15.52;;;5.10;;
21786;SDS011;11055;50.870;4.316;2023-05-27T02:32:07;20.35;;;5.10;;
21786;SDS011;11055;50.870;4.316;2023-05-27T02:34:32;18.20;;;4.55;;
21786;SDS011;11055;50.870;4.316;2023-05-27T02:37:02;18.08;;;4.78;;
21786;SDS011;11055;50.870;4.316;2023-05-27T02:39:29;17.15;;;5.38;;
21786;SDS011;11055;50.870;4.316;2023-05-27T02:41:55;15.25;;;4.90;;
21786;SDS011;11055;50.870;4.316;2023-05-27T02:44:20;14.80;;;4.10;;
21786;SDS011;11055;50.870;4.316;2023-05-27T02:46:46;15.23;;;5.20;;
21786;SDS011;11055;50.870;4.316;2023-05-27T02:49:12;18.63;;;4.97;;
21786;SDS011;11055;50.870;4.316;2023-05-27T02:51:37;16.25;;;4.72;;
21786;SDS011;11055;50.870;4.316;2023-05-27T02:54:03;17.65;;;5.15;;
21786;SDS011;11055;50.870;4.316;2023-05-27T02:56:29;14.48;;;4.40;;
21786;SDS011;11055;50.870;4.316;2023-05-27T02:58:54;13.07;;;4.63;;
21786;SDS011;11055;50.870;4.316;2023-05-27T03:01:20;20.90;;;5.43;;
21786;SDS011;11055;50.870;4.316;2023-05-27T03:03:46;13.55;;;4.65;;
21786;SDS011;11055;50.870;4.316;2023-05-27T03:06:11;18.25;;;4.55;;
21786;SDS011;11055;50.870;4.316;2023-05-27T03:08:37;14.18;;;4.57;;
21786;SDS011;11055;50.870;4.316;2023-05-27T03:11:03;22.60;;;5.20;;
21786;SDS011;11055;50.870;4.316;2023-05-27T03:13:29;15.18;;;4.97;;
21786;SDS011;11055;50.870;4.316;2023-05-27T03:15:55;14.05;;;4.63;;
21786;SDS011;11055;50.870;4.316;2023-05-27T03:18:21;22.73;;;5.40;;
21786;SDS011;11055;50.870;4.316;2023-05-27T03:20:46;19.63;;;4.90;;
21786;SDS011;11055;50.870;4.316;2023-05-27T03:23:13;19.58;;;5.13;;
21786;SDS011;11055;50.870;4.316;2023-05-27T03:25:38;15.07;;;5.35;;
21786;SDS011;11055;50.870;4.316;2023-05-27T03:28:04;15.82;;;4.90;;
21786;SDS011;11055;50.870;4.316;2023-05-27T03:30:30;15.20;;;4.72;;
21786;SDS011;11055;50.870;4.316;2023-05-27T03:32:56;16.08;;;5.15;;
21786;SDS011;11055;50.870;4.316;2023-05-27T03:35:21;16.58;;;5.30;;
21786;SDS011;11055;50.870;4.316;2023-05-27T03:37:47;15.32;;;5.03;;
21786;SDS011;11055;50.870;4.316;2023-05-27T03:40:13;15.57;;;5.93;;
21786;SDS011;11055;50.870;4.316;2023-05-27T03:42:38;19.33;;;4.70;;
21786;SDS011;11055;50.870;4.316;2023-05-27T03:45:04;18.73;;;6.32;;
21786;SDS011;11055;50.870;4.316;2023-05-27T03:47:30;20.33;;;5.88;;
21786;SDS011;11055;50.870;4.316;2023-05-27T03:49:56;19.15;;;5.13;;
21786;SDS011;11055;50.870;4.316;2023-05-27T03:52:21;17.42;;;5.18;;
21786;SDS011;11055;50.870;4.316;2023-05-27T03:54:47;19.67;;;6.13;;
21786;SDS011;11055;50.870;4.316;2023-05-27T03:57:13;16.63;;;4.53;;
21786;SDS011;11055;50.870;4.316;2023-05-27T03:59:38;19.30;;;4.78;;
21786;SDS011;11055;50.870;4.316;2023-05-27T04:02:04;15.20;;;5.78;;
21786;SDS011;11055;50.870;4.316;2023-05-27T04:04:30;16.15;;;4.97;;
21786;SDS011;11055;50.870;4.316;2023-05-27T04:06:55;17.98;;;5.15;;
21786;SDS011;11055;50.870;4.316;2023-05-27T04:09:21;21.83;;;5.88;;
21786;SDS011;11055;50.870;4.316;2023-05-27T04:11:47;15.55;;;5.28;;
21786;SDS011;11055;50.870;4.316;2023-05-27T04:14:13;15.00;;;5.00;;
21786;SDS011;11055;50.870;4.316;2023-05-27T04:16:38;16.08;;;5.45;;
21786;SDS011;11055;50.870;4.316;2023-05-27T04:19:06;19.58;;;5.80;;
21786;SDS011;11055;50.870;4.316;2023-05-27T04:21:32;17.00;;;5.75;;
21786;SDS011;11055;50.870;4.316;2023-05-27T04:23:57;19.23;;;6.07;;
21786;SDS011;11055;50.870;4.316;2023-05-27T04:26:23;18.73;;;5.40;;
21786;SDS011;11055;50.870;4.316;2023-05-27T04:28:49;15.43;;;5.10;;
21786;SDS011;11055;50.870;4.316;2023-05-27T04:31:14;18.75;;;5.18;;
21786;SDS011;11055;50.870;4.316;2023-05-27T04:33:44;14.30;;;5.32;;
21786;SDS011;11055;50.870;4.316;2023-05-27T04:36:10;16.48;;;5.45;;
21786;SDS011;11055;50.870;4.316;2023-05-27T04:38:36;18.08;;;5.10;;
21786;SDS011;11055;50.870;4.316;2023-05-27T04:41:02;17.02;;;5.78;;
21786;SDS011;11055;50.870;4.316;2023-05-27T04:43:29;16.17;;;6.03;;
21786;SDS011;11055;50.870;4.316;2023-05-27T04:45:56;16.52;;;5.72;;
21786;SDS011;11055;50.870;4.316;2023-05-27T04:48:24;17.83;;;5.18;;
21786;SDS011;11055;50.870;4.316;2023-05-27T04:50:50;14.20;;;5.25;;
21786;SDS011;11055;50.870;4.316;2023-05-27T04:53:19;16.80;;;5.53;;
21786;SDS011;11055;50.870;4.316;2023-05-27T04:55:44;18.40;;;5.55;;
21786;SDS011;11055;50.870;4.316;2023-05-27T04:58:11;12.43;;;5.65;;
21786;SDS011;11055;50.870;4.316;2023-05-27T05:00:37;22.17;;;6.32;;
21786;SDS011;11055;50.870;4.316;2023-05-27T05:03:21;21.33;;;6.40;;
21786;SDS011;11055;50.870;4.316;2023-05-27T05:05:51;19.80;;;5.70;;
21786;SDS011;11055;50.870;4.316;2023-05-27T05:08:20;23.05;;;5.95;;
21786;SDS011;11055;50.870;4.316;2023-05-27T05:10:46;17.67;;;5.97;;
21786;SDS011;11055;50.870;4.316;2023-05-27T05:13:12;18.75;;;6.00;;
21786;SDS011;11055;50.870;4.316;2023-05-27T05:15:39;20.40;;;6.20;;
21786;SDS011;11055;50.870;4.316;2023-05-27T05:18:05;18.73;;;6.57;;
21786;SDS011;11055;50.870;4.316;2023-05-27T05:20:31;18.40;;;6.25;;
21786;SDS011;11055;50.870;4.316;2023-05-27T05:22:57;20.95;;;6.10;;
21786;SDS011;11055;50.870;4.316;2023-05-27T05:25:23;19.90;;;6.72;;
21786;SDS011;11055;50.870;4.316;2023-05-27T05:27:49;18.17;;;5.97;;
21786;SDS011;11055;50.870;4.316;2023-05-27T05:30:14;15.77;;;6.15;;
21786;SDS011;11055;50.870;4.316;2023-05-27T05:32:40;18.38;;;6.63;;
21786;SDS011;11055;50.870;4.316;2023-05-27T05:35:06;14.02;;;6.53;;
21786;SDS011;11055;50.870;4.316;2023-05-27T05:37:32;17.50;;;6.45;;
21786;SDS011;11055;50.870;4.316;2023-05-27T05:39:57;19.38;;;7.30;;
21786;SDS011;11055;50.870;4.316;2023-05-27T05:42:23;19.70;;;6.10;;
21786;SDS011;11055;50.870;4.316;2023-05-27T05:44:50;18.10;;;6.70;;
21786;SDS011;11055;50.870;4.316;2023-05-27T05:47:17;15.77;;;6.50;;
21786;SDS011;11055;50.870;4.316;2023-05-27T05:49:43;16.90;;;6.82;;
21786;SDS011;11055;50.870;4.316;2023-05-27T05:52:08;21.08;;;6.78;;
21786;SDS011;11055;50.870;4.316;2023-05-27T05:54:34;16.95;;;7.10;;
21786;SDS011;11055;50.870;4.316;2023-05-27T05:57:00;20.58;;;6.72;;
21786;SDS011;11055;50.870;4.316;2023-05-27T05:59:27;18.67;;;6.85;;
21786;SDS011;11055;50.870;4.316;2023-05-27T06:01:53;24.20;;;8.20;;
21786;SDS011;11055;50.870;4.316;2023-05-27T06:04:19;20.77;;;6.50;;
21786;SDS011;11055;50.870;4.316;2023-05-27T06:06:45;14.32;;;6.13;;
21786;SDS011;11055;50.870;4.316;2023-05-27T06:09:11;16.17;;;6.40;;
21786;SDS011;11055;50.870;4.316;2023-05-27T06:11:36;16.60;;;6.28;;
21786;SDS011;11055;50.870;4.316;2023-05-27T06:14:02;24.25;;;7.15;;
21786;SDS011;11055;50.870;4.316;2023-05-27T06:16:28;23.63;;;7.55;;
21786;SDS011;11055;50.870;4.316;2023-05-27T06:18:54;21.95;;;7.55;;
21786;SDS011;11055;50.870;4.316;2023-05-27T06:21:20;18.00;;;6.53;;
21786;SDS011;11055;50.870;4.316;2023-05-27T06:23:45;17.63;;;7.40;;
21786;SDS011;11055;50.870;4.316;2023-05-27T06:26:11;19.67;;;7.22;;
21786;SDS011;11055;50.870;4.316;2023-05-27T06:28:37;17.40;;;7.00;;
21786;SDS011;11055;50.870;4.316;2023-05-27T06:31:03;20.02;;;7.25;;
21786;SDS011;11055;50.870;4.316;2023-05-27T06:33:29;20.10;;;7.05;;
21786;SDS011;11055;50.870;4.316;2023-05-27T06:35:54;22.92;;;8.15;;
21786;SDS011;11055;50.870;4.316;2023-05-27T06:38:20;19.23;;;7.45;;
21786;SDS011;11055;50.870;4.316;2023-05-27T06:40:46;21.95;;;7.93;;
21786;SDS011;11055;50.870;4.316;2023-05-27T06:43:11;18.23;;;7.00;;
21786;SDS011;11055;50.870;4.316;2023-05-27T06:45:37;16.58;;;6.43;;
21786;SDS011;11055;50.870;4.316;2023-05-27T06:48:03;23.33;;;8.13;;
21786;SDS011;11055;50.870;4.316;2023-05-27T06:50:28;16.10;;;8.43;;
21786;SDS011;11055;50.870;4.316;2023-05-27T06:52:54;18.27;;;7.22;;
21786;SDS011;11055;50.870;4.316;2023-05-27T06:55:20;23.52;;;8.30;;
21786;SDS011;11055;50.870;4.316;2023-05-27T06:57:45;23.55;;;8.38;;
21786;SDS011;11055;50.870;4.316;2023-05-27T07:00:11;21.65;;;8.45;;
21786;SDS011;11055;50.870;4.316;2023-05-27T07:02:37;22.95;;;8.00;;
21786;SDS011;11055;50.870;4.316;2023-05-27T07:05:03;25.65;;;8.25;;
21786;SDS011;11055;50.870;4.316;2023-05-27T07:07:28;18.27;;;7.60;;
21786;SDS011;11055;50.870;4.316;2023-05-27T07:09:55;21.42;;;7.68;;
21786;SDS011;11055;50.870;4.316;2023-05-27T07:12:21;22.33;;;7.82;;
21786;SDS011;11055;50.870;4.316;2023-05-27T07:14:48;24.73;;;7.72;;
21786;SDS011;11055;50.870;4.316;2023-05-27T07:17:14;20.02;;;8.05;;
21786;SDS011;11055;50.870;4.316;2023-05-27T07:19:40;22.38;;;7.05;;
21786;SDS011;11055;50.870;4.316;2023-05-27T07:22:05;17.17;;;7.07;;
21786;SDS011;11055;50.870;4.316;2023-05-27T07:24:31;18.33;;;7.13;;
21786;SDS011;11055;50.870;4.316;2023-05-27T07:26:57;21.13;;;7.65;;
21786;SDS011;11055;50.870;4.316;2023-05-27T07:29:23;17.38;;;7.15;;
21786;SDS011;11055;50.870;4.316;2023-05-27T07:31:49;19.95;;;7.63;;
21786;SDS011;11055;50.870;4.316;2023-05-27T07:34:15;21.77;;;6.82;;
21786;SDS011;11055;50.870;4.316;2023-05-27T07:36:40;16.38;;;6.97;;
21786;SDS011;11055;50.870;4.316;2023-05-27T07:39:06;18.10;;;6.80;;
21786;SDS011;11055;50.870;4.316;2023-05-27T07:41:31;21.20;;;7.53;;
21786;SDS011;11055;50.870;4.316;2023-05-27T07:43:58;22.35;;;7.15;;
21786;SDS011;11055;50.870;4.316;2023-05-27T07:46:23;17.00;;;7.30;;
21786;SDS011;11055;50.870;4.316;2023-05-27T07:48:49;22.73;;;7.03;;
21786;SDS011;11055;50.870;4.316;2023-05-27T07:51:15;18.45;;;7.05;;
21786;SDS011;11055;50.870;4.316;2023-05-27T07:53:41;17.52;;;7.53;;
21786;SDS011;11055;50.870;4.316;2023-05-27T07:56:06;22.38;;;6.82;;
21786;SDS011;11055;50.870;4.316;2023-05-27T07:58:32;17.90;;;7.03;;
21786;SDS011;11055;50.870;4.316;2023-05-27T08:00:58;21.33;;;7.40;;
21786;SDS011;11055;50.870;4.316;2023-05-27T08:03:23;14.07;;;5.90;;
21786;SDS011;11055;50.870;4.316;2023-05-27T08:05:49;17.52;;;7.00;;
21786;SDS011;11055;50.870;4.316;2023-05-27T08:08:15;19.30;;;6.88;;
21786;SDS011;11055;50.870;4.316;2023-05-27T08:10:41;19.08;;;7.43;;
21786;SDS011;11055;50.870;4.316;2023-05-27T08:13:06;17.92;;;6.53;;
21786;SDS011;11055;50.870;4.316;2023-05-27T08:15:32;20.70;;;7.93;;
21786;SDS011;11055;50.870;4.316;2023-05-27T08:17:58;14.70;;;6.88;;
21786;SDS011;11055;50.870;4.316;2023-05-27T08:20:24;18.40;;;7.25;;
21786;SDS011;11055;50.870;4.316;2023-05-27T08:22:50;21.48;;;6.82;;
21786;SDS011;11055;50.870;4.316;2023-05-27T08:25:15;19.70;;;7.45;;
21786;SDS011;11055;50.870;4.316;2023-05-27T08:27:52;18.92;;;9.05;;
21786;SDS011;11055;50.870;4.316;2023-05-27T08:30:18;21.17;;;8.23;;
21786;SDS011;11055;50.870;4.316;2023-05-27T08:32:44;20.48;;;7.18;;
21786;SDS011;11055;50.870;4.316;2023-05-27T08:35:11;24.23;;;7.50;;
21786;SDS011;11055;50.870;4.316;2023-05-27T08:37:37;18.52;;;6.68;;
21786;SDS011;11055;50.870;4.316;2023-05-27T08:40:04;19.08;;;7.20;;
21786;SDS011;11055;50.870;4.316;2023-05-27T08:42:32;16.15;;;6.22;;
21786;SDS011;11055;50.870;4.316;2023-05-27T08:44:59;13.75;;;6.10;;
21786;SDS011;11055;50.870;4.316;2023-05-27T08:47:25;17.00;;;6.50;;
21786;SDS011;11055;50.870;4.316;2023-05-27T08:49:57;17.30;;;7.15;;
21786;SDS011;11055;50.870;4.316;2023-05-27T08:52:29;17.90;;;6.93;;
21786;SDS011;11055;50.870;4.316;2023-05-27T08:54:58;19.48;;;6.10;;
21786;SDS011;11055;50.870;4.316;2023-05-27T08:57:29;19.33;;;6.45;;
21786;SDS011;11055;50.870;4.316;2023-05-27T08:59:57;18.55;;;7.10;;
21786;SDS011;11055;50.870;4.316;2023-05-27T09:02:23;13.68;;;5.88;;
21786;SDS011;11055;50.870;4.316;2023-05-27T09:04:50;15.18;;;6.25;;
21786;SDS011;11055;50.870;4.316;2023-05-27T09:07:17;22.58;;;7.35;;
21786;SDS011;11055;50.870;4.316;2023-05-27T09:09:54;18.35;;;6.18;;
21786;SDS011;11055;50.870;4.316;2023-05-27T09:12:22;14.02;;;6.30;;
21786;SDS011;11055;50.870;4.316;2023-05-27T09:14:49;19.58;;;6.68;;
21786;SDS011;11055;50.870;4.316;2023-05-27T09:17:15;15.88;;;5.80;;
21786;SDS011;11055;50.870;4.316;2023-05-27T09:19:41;15.35;;;7.22;;
21786;SDS011;11055;50.870;4.316;2023-05-27T09:22:07;17.85;;;6.43;;
21786;SDS011;11055;50.870;4.316;2023-05-27T09:24:34;15.80;;;6.07;;
21786;SDS011;11055;50.870;4.316;2023-05-27T09:27:00;17.73;;;6.65;;
21786;SDS011;11055;50.870;4.316;2023-05-27T09:29:26;16.42;;;6.35;;
21786;SDS011;11055;50.870;4.316;2023-05-27T09:31:55;18.88;;;6.80;;
21786;SDS011;11055;50.870;4.316;2023-05-27T09:34:21;17.50;;;6.22;;
21786;SDS011;11055;50.870;4.316;2023-05-27T09:36:50;19.52;;;6.32;;
21786;SDS011;11055;50.870;4.316;2023-05-27T09:39:19;24.25;;;7.47;;
21786;SDS011;11055;50.870;4.316;2023-05-27T09:41:52;16.70;;;6.22;;
21786;SDS011;11055;50.870;4.316;2023-05-27T09:44:18;21.30;;;6.78;;
21786;SDS011;11055;50.870;4.316;2023-05-27T09:46:44;15.15;;;6.72;;
21786;SDS011;11055;50.870;4.316;2023-05-27T09:49:12;19.35;;;6.70;;
21786;SDS011;11055;50.870;4.316;2023-05-27T09:51:40;17.80;;;6.78;;
21786;SDS011;11055;50.870;4.316;2023-05-27T09:54:06;20.92;;;6.40;;
21786;SDS011;11055;50.870;4.316;2023-05-27T09:56:34;20.42;;;6.97;;
21786;SDS011;11055;50.870;4.316;2023-05-27T09:59:00;15.88;;;6.40;;
21786;SDS011;11055;50.870;4.316;2023-05-27T10:01:27;21.70;;;6.57;;
21786;SDS011;11055;50.870;4.316;2023-05-27T10:03:54;16.38;;;6.03;;
21786;SDS011;11055;50.870;4.316;2023-05-27T10:06:23;15.50;;;6.93;;
21786;SDS011;11055;50.870;4.316;2023-05-27T10:08:51;14.48;;;6.28;;
21786;SDS011;11055;50.870;4.316;2023-05-27T10:11:20;17.25;;;6.25;;
21786;SDS011;11055;50.870;4.316;2023-05-27T10:13:47;15.90;;;6.40;;
21786;SDS011;11055;50.870;4.316;2023-05-27T10:16:20;17.52;;;6.10;;
21786;SDS011;11055;50.870;4.316;2023-05-27T10:18:46;18.05;;;6.32;;
21786;SDS011;11055;50.870;4.316;2023-05-27T10:21:21;15.45;;;7.10;;
21786;SDS011;11055;50.870;4.316;2023-05-27T10:23:52;17.85;;;5.95;;
21786;SDS011;11055;50.870;4.316;2023-05-27T10:26:30;13.30;;;5.88;;
21786;SDS011;11055;50.870;4.316;2023-05-27T10:29:04;15.68;;;5.50;;
21786;SDS011;11055;50.870;4.316;2023-05-27T10:31:45;14.13;;;5.80;;
21786;SDS011;11055;50.870;4.316;2023-05-27T10:34:12;14.87;;;5.33;;
21786;SDS011;11055;50.870;4.316;2023-05-27T10:36:38;16.98;;;5.93;;
21786;SDS011;11055;50.870;4.316;2023-05-27T10:39:05;17.27;;;6.47;;
21786;SDS011;11055;50.870;4.316;2023-05-27T10:41:44;15.75;;;6.40;;
21786;SDS011;11055;50.870;4.316;2023-05-27T10:44:27;18.13;;;6.25;;
21786;SDS011;11055;50.870;4.316;2023-05-27T10:47:01;14.57;;;5.82;;
21786;SDS011;11055;50.870;4.316;2023-05-27T10:49:35;17.05;;;5.05;;
21786;SDS011;11055;50.870;4.316;2023-05-27T10:52:07;15.27;;;5.53;;
21786;SDS011;11055;50.870;4.316;2023-05-27T10:54:41;14.88;;;5.18;;
21786;SDS011;11055;50.870;4.316;2023-05-27T10:57:13;16.30;;;5.60;;
21786;SDS011;11055;50.870;4.316;2023-05-27T10:59:43;14.82;;;5.22;;
21786;SDS011;11055;50.870;4.316;2023-05-27T11:02:11;15.43;;;5.85;;
21786;SDS011;11055;50.870;4.316;2023-05-27T11:04:36;15.98;;;5.03;;
21786;SDS011;11055;50.870;4.316;2023-05-27T11:07:03;20.20;;;5.45;;
21786;SDS011;11055;50.870;4.316;2023-05-27T11:09:29;15.77;;;5.72;;
21786;SDS011;11055;50.870;4.316;2023-05-27T11:12:08;13.45;;;6.00;;
21786;SDS011;11055;50.870;4.316;2023-05-27T11:14:33;16.08;;;5.55;;
21786;SDS011;11055;50.870;4.316;2023-05-27T11:17:01;12.27;;;4.80;;
21786;SDS011;11055;50.870;4.316;2023-05-27T11:19:26;16.33;;;5.43;;
21786;SDS011;11055;50.870;4.316;2023-05-27T11:21:52;11.70;;;4.63;;
21786;SDS011;11055;50.870;4.316;2023-05-27T11:24:18;18.83;;;5.05;;
21786;SDS011;11055;50.870;4.316;2023-05-27T11:26:45;14.05;;;4.75;;
21786;SDS011;11055;50.870;4.316;2023-05-27T11:29:12;19.33;;;5.43;;
21786;SDS011;11055;50.870;4.316;2023-05-27T11:31:38;13.05;;;5.40;;
21786;SDS011;11055;50.870;4.316;2023-05-27T11:34:14;14.70;;;5.82;;
21786;SDS011;11055;50.870;4.316;2023-05-27T11:36:40;13.48;;;4.82;;
21786;SDS011;11055;50.870;4.316;2023-05-27T11:39:12;13.65;;;4.85;;
21786;SDS011;11055;50.870;4.316;2023-05-27T11:41:47;14.63;;;4.95;;
21786;SDS011;11055;50.870;4.316;2023-05-27T11:44:23;18.15;;;5.55;;
21786;SDS011;11055;50.870;4.316;2023-05-27T11:46:50;12.00;;;4.95;;
21786;SDS011;11055;50.870;4.316;2023-05-27T11:49:18;12.80;;;4.85;;
21786;SDS011;11055;50.870;4.316;2023-05-27T11:51:45;13.18;;;4.95;;
21786;SDS011;11055;50.870;4.316;2023-05-27T11:54:22;13.65;;;4.97;;
21786;SDS011;11055;50.870;4.316;2023-05-27T11:56:49;14.70;;;5.00;;
21786;SDS011;11055;50.870;4.316;2023-05-27T11:59:16;17.85;;;5.18;;
21786;SDS011;11055;50.870;4.316;2023-05-27T12:01:43;13.82;;;4.75;;
21786;SDS011;11055;50.870;4.316;2023-05-27T12:04:09;13.43;;;4.53;;
21786;SDS011;11055;50.870;4.316;2023-05-27T12:06:36;12.57;;;4.82;;
21786;SDS011;11055;50.870;4.316;2023-05-27T12:09:03;12.63;;;4.88;;
21786;SDS011;11055;50.870;4.316;2023-05-27T12:11:33;11.70;;;5.28;;
21786;SDS011;11055;50.870;4.316;2023-05-27T12:14:00;12.98;;;5.20;;
21786;SDS011;11055;50.870;4.316;2023-05-27T12:16:26;13.05;;;5.00;;
21786;SDS011;11055;50.870;4.316;2023-05-27T12:18:52;11.63;;;4.80;;
21786;SDS011;11055;50.870;4.316;2023-05-27T12:21:18;16.52;;;5.63;;
21786;SDS011;11055;50.870;4.316;2023-05-27T12:23:45;14.07;;;5.63;;
21786;SDS011;11055;50.870;4.316;2023-05-27T12:26:12;14.45;;;5.10;;
21786;SDS011;11055;50.870;4.316;2023-05-27T12:28:38;11.18;;;4.78;;
21786;SDS011;11055;50.870;4.316;2023-05-27T12:31:04;12.20;;;4.82;;
21786;SDS011;11055;50.870;4.316;2023-05-27T12:33:29;11.30;;;4.68;;
21786;SDS011;11055;50.870;4.316;2023-05-27T12:35:56;16.40;;;5.60;;
21786;SDS011;11055;50.870;4.316;2023-05-27T12:38:22;10.82;;;5.15;;
21786;SDS011;11055;50.870;4.316;2023-05-27T12:40:48;15.82;;;4.82;;
21786;SDS011;11055;50.870;4.316;2023-05-27T12:43:14;15.18;;;5.80;;
21786;SDS011;11055;50.870;4.316;2023-05-27T12:45:40;15.27;;;4.57;;
21786;SDS011;11055;50.870;4.316;2023-05-27T12:48:06;13.27;;;5.25;;
21786;SDS011;11055;50.870;4.316;2023-05-27T12:50:32;10.80;;;4.10;;
21786;SDS011;11055;50.870;4.316;2023-05-27T12:52:58;13.75;;;4.90;;
21786;SDS011;11055;50.870;4.316;2023-05-27T12:55:24;14.70;;;4.72;;
21786;SDS011;11055;50.870;4.316;2023-05-27T12:57:50;15.57;;;4.72;;
21786;SDS011;11055;50.870;4.316;2023-05-27T13:00:18;11.88;;;4.40;;
21786;SDS011;11055;50.870;4.316;2023-05-27T13:02:45;10.05;;;4.57;;
21786;SDS011;11055;50.870;4.316;2023-05-27T13:05:15;12.95;;;4.47;;
21786;SDS011;11055;50.870;4.316;2023-05-27T13:07:52;11.13;;;4.38;;
21786;SDS011;11055;50.870;4.316;2023-05-27T13:10:20;11.23;;;4.28;;
21786;SDS011;11055;50.870;4.316;2023-05-27T13:12:46;10.13;;;4.45;;
21786;SDS011;11055;50.870;4.316;2023-05-27T13:15:13;12.20;;;4.05;;
21786;SDS011;11055;50.870;4.316;2023-05-27T13:17:41;10.45;;;4.40;;
21786;SDS011;11055;50.870;4.316;2023-05-27T13:20:07;14.20;;;4.60;;
21786;SDS011;11055;50.870;4.316;2023-05-27T13:22:34;13.32;;;4.60;;
21786;SDS011;11055;50.870;4.316;2023-05-27T13:24:59;11.63;;;4.40;;
21786;SDS011;11055;50.870;4.316;2023-05-27T13:27:26;13.15;;;4.95;;
21786;SDS011;11055;50.870;4.316;2023-05-27T13:29:51;13.85;;;4.93;;
21786;SDS011;11055;50.870;4.316;2023-05-27T13:32:17;14.20;;;4.93;;
21786;SDS011;11055;50.870;4.316;2023-05-27T13:34:43;14.80;;;5.18;;
21786;SDS011;11055;50.870;4.316;2023-05-27T13:37:09;13.48;;;4.57;;
21786;SDS011;11055;50.870;4.316;2023-05-27T13:39:34;13.02;;;4.80;;
21786;SDS011;11055;50.870;4.316;2023-05-27T13:42:00;11.10;;;4.20;;
21786;SDS011;11055;50.870;4.316;2023-05-27T13:44:26;13.38;;;3.97;;
21786;SDS011;11055;50.870;4.316;2023-05-27T13:46:52;12.55;;;3.97;;
21786;SDS011;11055;50.870;4.316;2023-05-27T13:49:17;9.90;;;4.32;;
21786;SDS011;11055;50.870;4.316;2023-05-27T13:51:43;7.97;;;4.03;;
21786;SDS011;11055;50.870;4.316;2023-05-27T13:54:10;9.45;;;4.15;;
21786;SDS011;11055;50.870;4.316;2023-05-27T13:56:36;12.77;;;4.10;;
21786;SDS011;11055;50.870;4.316;2023-05-27T13:59:02;9.38;;;3.92;;
21786;SDS011;11055;50.870;4.316;2023-05-27T14:01:31;11.35;;;4.28;;
21786;SDS011;11055;50.870;4.316;2023-05-27T14:04:00;11.40;;;4.32;;
21786;SDS011;11055;50.870;4.316;2023-05-27T14:06:26;13.52;;;5.63;;
21786;SDS011;11055;50.870;4.316;2023-05-27T14:08:52;15.35;;;4.97;;
21786;SDS011;11055;50.870;4.316;2023-05-27T14:11:18;11.50;;;4.50;;
21786;SDS011;11055;50.870;4.316;2023-05-27T14:13:44;11.15;;;4.50;;
21786;SDS011;11055;50.870;4.316;2023-05-27T14:16:10;10.15;;;3.90;;
21786;SDS011;11055;50.870;4.316;2023-05-27T14:18:35;13.27;;;4.35;;
21786;SDS011;11055;50.870;4.316;2023-05-27T14:21:01;11.00;;;4.63;;
21786;SDS011;11055;50.870;4.316;2023-05-27T14:23:27;13.13;;;4.57;;
21786;SDS011;11055;50.870;4.316;2023-05-27T14:25:52;12.38;;;4.10;;
21786;SDS011;11055;50.870;4.316;2023-05-27T14:28:19;10.90;;;3.85;;
21786;SDS011;11055;50.870;4.316;2023-05-27T14:30:44;13.85;;;4.20;;
21786;SDS011;11055;50.870;4.316;2023-05-27T14:33:10;10.90;;;4.30;;
21786;SDS011;11055;50.870;4.316;2023-05-27T14:35:36;11.98;;;4.38;;
21786;SDS011;11055;50.870;4.316;2023-05-27T14:38:05;12.18;;;4.10;;
21786;SDS011;11055;50.870;4.316;2023-05-27T14:40:32;12.48;;;4.13;;
21786;SDS011;11055;50.870;4.316;2023-05-27T14:42:58;13.80;;;4.38;;